Time;durP1;ratioP1;P1;durP2;ratioP2;P2;SDS_P1;SDS_P2;PMS_P1;PMS_P2;Temp;Humidity;BMP_temperature;BMP_pressure;BME280_temperature;BME280_humidity;BME280_pressure;Samples;Min_cycle;Max_cycle;Signal;HPM_P1;HPM_P2
2022/03/31 00:01:09;;;;;;;19.20;16.53;;;11.10;1.00;;;;;;6167538;23;20164;-77
2022/03/31 00:03:51;;;;;;;21.67;16.87;;;11.10;1.00;;;;;;6192178;23;20152;-77
2022/03/31 00:06:17;;;;;;;22.80;18.03;;;11.20;1.00;;;;;;6159155;23;20239;-90
2022/03/31 00:08:43;;;;;;;25.67;20.10;;;10.90;1.00;;;;;;6188633;23;20220;-86
2022/03/31 00:11:08;;;;;;;24.70;20.20;;;10.80;1.00;;;;;;6188778;23;20642;-89
2022/03/31 00:13:34;;;;;;;24.93;20.03;;;10.70;1.00;;;;;;6187719;23;20489;-85
2022/03/31 00:16:00;;;;;;;24.27;19.87;;;10.80;1.00;;;;;;6188135;23;20150;-78
2022/03/31 00:18:29;;;;;;;24.13;20.33;;;10.90;1.00;;;;;;6198691;23;20141;-76
2022/03/31 00:20:55;;;;;;;25.73;19.93;;;10.90;1.00;;;;;;6176833;23;20146;-75
2022/03/31 00:23:21;;;;;;;27.50;20.10;;;10.90;1.00;;;;;;6203963;23;20597;-78
2022/03/31 00:25:52;;;;;;;25.97;20.87;;;11.10;1.00;;;;;;6201767;23;20173;-78
2022/03/31 00:28:22;;;;;;;24.17;19.33;;;11.20;1.00;;;;;;6194421;23;20507;-81
2022/03/31 00:30:48;;;;;;;27.03;19.87;;;11.20;1.00;;;;;;6203391;23;20140;-77
2022/03/31 00:33:15;;;;;;;27.20;19.60;;;11.40;1.00;;;;;;6207668;22;20252;-77
2022/03/31 00:35:41;;;;;;;26.13;19.37;;;11.50;1.00;;;;;;6209950;23;20217;-80
2022/03/31 00:38:10;;;;;;;27.17;19.97;;;11.50;1.00;;;;;;6210425;23;20166;-78
2022/03/31 00:40:46;;;;;;;20.93;18.27;;;11.30;1.00;;;;;;6182778;23;20344;-75
2022/03/31 00:43:13;;;;;;;25.10;19.43;;;11.20;1.00;;;;;;6208170;23;20118;-76
2022/03/31 00:49:01;;;;;;;25.77;18.77;;;11.40;1.00;;;;;;6209224;23;20153;-75
2022/03/31 00:51:33;;;;;;;25.23;19.37;;;11.50;1.00;;;;;;6211212;23;20122;-75
2022/03/31 00:53:59;;;;;;;28.27;18.87;;;11.50;1.00;;;;;;6211545;22;20201;-77
2022/03/31 00:56:38;;;;;;;26.57;20.50;;;11.50;1.00;;;;;;6208335;23;20166;-75
2022/03/31 00:59:09;;;;;;;27.53;20.07;;;11.40;1.00;;;;;;6208518;23;20146;-75
2022/03/31 01:01:58;;;;;;;26.50;19.33;;;11.40;1.00;;;;;;6203527;23;20130;-77
2022/03/31 01:04:30;;;;;;;25.83;19.87;;;11.10;1.00;;;;;;6167987;23;20186;-80
2022/03/31 01:07:03;;;;;;;29.37;20.50;;;11.00;1.00;;;;;;6194327;23;20182;-84
2022/03/31 01:09:36;;;;;;;29.70;21.57;;;10.90;1.00;;;;;;6192628;23;20161;-91
2022/03/31 01:12:05;;;;;;;27.90;21.43;;;10.80;1.00;;;;;;6191132;23;20208;-89
2022/03/31 01:14:33;;;;;;;28.50;21.93;;;10.60;1.00;;;;;;6190610;23;20138;-82
2022/03/31 01:17:02;;;;;;;28.93;23.00;;;10.50;1.00;;;;;;6190790;23;20130;-86
2022/03/31 01:19:29;;;;;;;27.67;22.37;;;10.50;1.00;;;;;;6191016;23;20641;-88
2022/03/31 01:21:54;;;;;;;29.63;22.10;;;10.40;1.00;;;;;;6191491;23;20142;-83
2022/03/31 01:24:20;;;;;;;30.37;22.93;;;10.20;1.00;;;;;;6198947;23;20577;-83
2022/03/31 01:26:46;;;;;;;28.53;22.70;;;10.20;1.00;;;;;;6198818;23;20185;-77
2022/03/31 01:29:12;;;;;;;25.23;21.57;;;10.20;1.00;;;;;;6195760;23;20138;-90
2022/03/31 01:31:38;;;;;;;28.73;22.93;;;10.30;1.00;;;;;;6172485;23;20165;-79
2022/03/31 01:34:07;;;;;;;27.13;22.47;;;10.30;1.00;;;;;;6201643;23;20157;-77
2022/03/31 01:36:36;;;;;;;27.30;22.00;;;10.30;1.00;;;;;;6201378;23;20212;-75
2022/03/31 01:39:02;;;;;;;29.37;23.00;;;10.30;1.00;;;;;;6198084;23;20134;-78
2022/03/31 01:41:27;;;;;;;27.43;22.27;;;10.20;1.00;;;;;;6200582;23;20126;-88
2022/03/31 01:43:53;;;;;;;29.33;21.90;;;10.20;1.00;;;;;;6204456;23;20463;-77
2022/03/31 01:46:19;;;;;;;29.93;22.97;;;10.00;1.00;;;;;;6174046;23;20190;-76
2022/03/31 01:48:45;;;;;;;28.33;22.57;;;10.10;1.00;;;;;;6197271;23;20141;-77
2022/03/31 01:51:12;;;;;;;30.47;22.80;;;9.90;1.50;;;;;;6200554;23;20138;-86
2022/03/31 01:53:40;;;;;;;30.27;22.87;;;10.00;2.90;;;;;;6170630;23;20146;-77
2022/03/31 01:56:08;;;;;;;26.67;21.60;;;10.00;6.20;;;;;;6192985;23;20162;-85
2022/03/31 01:58:34;;;;;;;28.90;22.73;;;10.00;4.90;;;;;;6192274;23;20465;-84
2022/03/31 02:01:01;;;;;;;26.80;21.20;;;9.90;6.90;;;;;;6190613;23;20138;-76
2022/03/31 02:03:26;;;;;;;27.83;21.50;;;9.90;6.40;;;;;;6190794;23;20229;-79
2022/03/31 02:05:52;;;;;;;31.33;23.33;;;10.00;6.70;;;;;;6197373;23;20166;-82
2022/03/31 02:08:21;;;;;;;27.57;22.80;;;10.20;2.00;;;;;;6194779;23;20142;-84
2022/03/31 02:10:49;;;;;;;31.47;23.13;;;10.40;1.00;;;;;;6163013;23;20150;-78
2022/03/31 02:13:15;;;;;;;28.90;22.83;;;10.40;1.00;;;;;;6188545;23;20173;-90
2022/03/31 02:15:41;;;;;;;29.63;22.90;;;10.50;1.00;;;;;;6188509;23;20630;-77
2022/03/31 02:18:07;;;;;;;30.80;23.43;;;10.50;1.00;;;;;;6188137;23;20145;-77
2022/03/31 02:20:33;;;;;;;32.97;24.33;;;10.40;1.00;;;;;;6188466;23;20150;-77
2022/03/31 02:23:02;;;;;;;28.43;23.30;;;10.40;1.00;;;;;;6188050;23;20134;-77
2022/03/31 02:25:28;;;;;;;29.97;22.20;;;10.30;1.00;;;;;;6195099;23;20129;-85
2022/03/31 02:27:55;;;;;;;29.67;23.00;;;10.20;1.00;;;;;;6171702;23;20228;-75
2022/03/31 02:30:22;;;;;;;30.37;23.47;;;10.10;1.00;;;;;;6190070;23;20137;-90
2022/03/31 02:32:48;;;;;;;29.27;23.43;;;10.30;1.00;;;;;;6197825;23;20141;-77
2022/03/31 02:35:14;;;;;;;29.10;23.43;;;10.30;1.00;;;;;;6203306;23;20161;-77
2022/03/31 02:37:39;;;;;;;31.40;23.10;;;10.40;1.00;;;;;;6197173;23;20145;-78
2022/03/31 02:40:21;;;;;;;18.40;14.47;;;10.40;1.00;;;;;;6194455;23;20142;-83
2022/03/31 02:42:49;;;;;;;15.43;12.53;;;9.60;1.00;;;;;;6162659;23;20496;-79
2022/03/31 02:45:16;;;;;;;13.83;10.77;;;9.00;7.00;;;;;;6190378;23;20148;-88
2022/03/31 02:47:44;;;;;;;12.67;9.80;;;8.70;3.80;;;;;;6188265;23;20188;-90
2022/03/31 02:50:10;;;;;;;11.53;8.70;;;8.70;6.40;;;;;;6195940;23;20134;-89
2022/03/31 02:55:24;;;;;;;10.63;8.13;;;8.30;1.00;;;;;;6187364;23;20144;-85
2022/03/31 02:57:51;;;;;;;11.00;8.07;;;8.10;1.00;;;;;;6188233;23;20634;-77
2022/03/31 03:00:17;;;;;;;12.43;8.47;;;8.10;1.00;;;;;;6198069;23;20130;-77
2022/03/31 03:02:43;;;;;;;10.57;8.10;;;8.00;1.00;;;;;;6174402;23;20911;-77
2022/03/31 03:05:15;;;;;;;12.20;8.57;;;8.00;1.00;;;;;;6193517;23;20153;-80
2022/03/31 03:08:02;;;;;;;9.47;8.00;;;8.00;1.00;;;;;;6190892;23;20173;-76
2022/03/31 03:10:28;;;;;;;11.43;7.93;;;7.90;1.00;;;;;;6196243;23;20130;-77
2022/03/31 03:12:54;;;;;;;12.77;8.07;;;7.80;1.00;;;;;;6196119;23;20174;-79
2022/03/31 03:15:20;;;;;;;9.47;7.20;;;7.80;1.00;;;;;;6194832;23;20144;-75
2022/03/31 03:17:49;;;;;;;10.80;7.67;;;7.70;1.00;;;;;;6172615;23;20149;-76
2022/03/31 03:20:17;;;;;;;10.20;7.70;;;7.70;1.00;;;;;;6195027;23;20133;-77
2022/03/31 03:22:51;;;;;;;9.20;7.73;;;7.70;1.00;;;;;;6190865;23;20142;-79
2022/03/31 03:25:35;;;;;;;9.67;8.20;;;7.90;1.00;;;;;;6186983;23;20229;-77
2022/03/31 03:28:01;;;;;;;7.63;6.77;;;7.60;1.00;;;;;;6187290;23;20141;-76
2022/03/31 03:30:28;;;;;;;9.93;7.93;;;7.40;1.00;;;;;;6187623;23;20161;-84
2022/03/31 03:32:54;;;;;;;8.93;8.00;;;7.60;1.00;;;;;;6186653;23;20158;-89
2022/03/31 03:35:19;;;;;;;9.20;7.50;;;7.50;1.00;;;;;;6187020;23;20149;-91
2022/03/31 03:37:46;;;;;;;10.93;7.30;;;7.50;1.00;;;;;;6195423;23;20142;-76
2022/03/31 03:40:13;;;;;;;8.70;7.53;;;7.30;1.00;;;;;;6203834;23;20134;-79
2022/03/31 03:42:39;;;;;;;7.93;6.53;;;7.30;1.00;;;;;;6198264;23;20192;-77
2022/03/31 03:45:07;;;;;;;10.77;5.10;;;7.30;5.00;;;;;;6193584;23;20138;-83
2022/03/31 03:47:38;;;;;;;8.83;5.73;;;7.10;17.00;;;;;;6190837;23;20563;-83
2022/03/31 03:50:06;;;;;;;9.67;6.13;;;6.90;35.90;;;;;;6170941;23;20138;-79
2022/03/31 03:52:32;;;;;;;10.13;6.53;;;6.70;46.50;;;;;;6167565;23;20138;-91
2022/03/31 03:54:57;;;;;;;8.73;7.10;;;6.60;52.90;;;;;;6191664;23;20166;-86
2022/03/31 03:57:25;;;;;;;11.20;7.73;;;6.50;57.00;;;;;;6189484;23;20152;-89
2022/03/31 03:59:51;;;;;;;9.17;6.97;;;6.50;62.60;;;;;;6191559;23;20150;-76
2022/03/31 04:02:17;;;;;;;10.50;8.60;;;6.30;68.40;;;;;;6202876;23;20140;-79
2022/03/31 04:04:42;;;;;;;10.43;8.43;;;6.10;71.60;;;;;;6202964;23;20555;-88
2022/03/31 04:07:08;;;;;;;9.70;7.20;;;6.10;74.80;;;;;;6193500;23;20177;-82
2022/03/31 04:09:37;;;;;;;8.73;7.40;;;6.10;76.50;;;;;;6195818;23;20110;-78
2022/03/31 04:12:04;;;;;;;9.40;6.43;;;5.90;79.10;;;;;;6196845;23;20138;-89
2022/03/31 04:14:30;;;;;;;11.07;6.07;;;5.70;83.30;;;;;;6190393;23;20138;-91
2022/03/31 04:17:02;;;;;;;11.23;7.50;;;5.60;87.50;;;;;;6203214;23;20149;-77
2022/03/31 04:19:28;;;;;;;8.37;6.30;;;5.60;89.50;;;;;;6200055;23;20469;-76
2022/03/31 04:21:54;;;;;;;8.60;5.97;;;5.50;87.40;;;;;;6205378;22;20153;-76
2022/03/31 04:24:19;;;;;;;8.87;6.57;;;5.40;86.80;;;;;;6207834;22;20461;-75
2022/03/31 04:26:45;;;;;;;8.93;6.83;;;5.30;88.40;;;;;;6210953;22;20173;-77
2022/03/31 04:29:11;;;;;;;4.83;4.30;;;5.30;90.40;;;;;;6182513;22;20134;-82
2022/03/31 04:31:43;;;;;;;4.43;3.50;;;5.30;88.20;;;;;;6181629;23;20237;-76
2022/03/31 04:34:11;;;;;;;5.23;4.10;;;5.00;84.60;;;;;;6177862;23;20150;-78
2022/03/31 04:36:37;;;;;;;5.77;3.60;;;4.70;87.00;;;;;;6199901;23;20165;-78
2022/03/31 04:39:03;;;;;;;5.47;3.73;;;4.50;88.80;;;;;;6202061;23;20201;-79
2022/03/31 04:41:30;;;;;;;4.20;3.80;;;4.50;90.90;;;;;;6177859;23;20158;-78
2022/03/31 04:44:02;;;;;;;5.03;4.30;;;4.30;91.80;;;;;;6201972;23;20145;-78
2022/03/31 04:46:27;;;;;;;4.83;3.57;;;4.40;92.60;;;;;;6209728;22;20166;-77
2022/03/31 04:48:53;;;;;;;4.13;3.30;;;4.30;92.80;;;;;;6207282;22;20334;-76
2022/03/31 04:51:22;;;;;;;5.47;3.63;;;4.20;93.20;;;;;;6206728;23;20145;-83
2022/03/31 04:53:51;;;;;;;5.23;4.30;;;4.10;92.60;;;;;;6208919;23;20135;-81
2022/03/31 04:56:22;;;;;;;5.70;4.20;;;4.10;92.80;;;;;;6202975;23;20138;-76
2022/03/31 04:58:51;;;;;;;3.73;3.10;;;4.00;93.20;;;;;;6206913;22;20165;-76
2022/03/31 05:01:23;;;;;;;4.60;3.93;;;4.00;93.60;;;;;;6207546;23;20139;-76
2022/03/31 05:03:55;;;;;;;5.63;4.73;;;3.90;94.10;;;;;;6206992;22;20226;-76
2022/03/31 05:06:24;;;;;;;6.40;5.20;;;4.00;94.70;;;;;;6208044;23;20178;-76
2022/03/31 05:08:55;;;;;;;7.10;5.20;;;4.00;94.80;;;;;;6202881;23;20142;-81
2022/03/31 05:11:24;;;;;;;6.23;4.83;;;4.00;95.20;;;;;;6201860;23;20125;-76
2022/03/31 05:14:35;;;;;;;8.07;5.90;;;3.70;94.00;;;;;;6201784;23;20193;-85
2022/03/31 05:17:07;;;;;;;9.57;7.33;;;3.70;95.00;;;;;;6199751;23;20133;-76
2022/03/31 05:19:40;;;;;;;8.60;7.47;;;3.80;95.50;;;;;;6210623;23;20598;-78
2022/03/31 05:22:06;;;;;;;6.07;5.20;;;3.80;95.70;;;;;;6204646;23;20150;-76
2022/03/31 05:24:46;;;;;;;4.27;3.37;;;3.70;95.30;;;;;;6192327;23;20177;-92
2022/03/31 05:27:15;;;;;;;3.50;3.20;;;3.70;95.00;;;;;;6189974;23;20181;-88
2022/03/31 05:29:41;;;;;;;4.10;3.70;;;3.60;94.40;;;;;;6190919;23;20138;-78
2022/03/31 05:32:07;;;;;;;2.60;2.00;;;3.70;95.10;;;;;;6190870;23;20248;-76
2022/03/31 05:34:55;;;;;;;3.07;2.40;;;3.60;94.50;;;;;;6204261;23;20142;-76
2022/03/31 05:37:27;;;;;;;3.17;2.50;;;3.50;94.40;;;;;;6203394;23;20165;-84
2022/03/31 05:39:54;;;;;;;2.87;2.40;;;3.50;94.70;;;;;;6197345;23;20134;-86
2022/03/31 05:42:26;;;;;;;5.47;3.40;;;3.50;94.90;;;;;;6191682;23;20162;-89
2022/03/31 05:44:52;;;;;;;3.03;2.37;;;3.50;94.90;;;;;;6191151;23;20169;-87
2022/03/31 05:47:18;;;;;;;4.13;2.90;;;3.40;94.70;;;;;;6192091;23;20181;-84
2022/03/31 05:49:44;;;;;;;3.57;3.27;;;3.40;95.00;;;;;;6202085;23;20145;-79
2022/03/31 05:52:10;;;;;;;3.50;3.20;;;3.40;95.10;;;;;;6206160;23;20142;-77
2022/03/31 05:54:36;;;;;;;3.73;3.27;;;3.50;95.50;;;;;;6173365;23;20168;-78
2022/03/31 05:57:02;;;;;;;4.60;3.80;;;3.50;95.10;;;;;;6194014;23;20131;-78
2022/03/31 05:59:28;;;;;;;4.70;4.20;;;3.50;94.90;;;;;;6192124;23;20611;-81
2022/03/31 06:01:53;;;;;;;4.77;3.77;;;3.50;95.10;;;;;;6167609;23;20161;-78
2022/03/31 06:04:21;;;;;;;4.00;3.37;;;3.60;95.60;;;;;;6192265;23;20134;-85
2022/03/31 06:06:51;;;;;;;3.80;3.40;;;3.40;95.20;;;;;;6198588;23;20174;-81
2022/03/31 06:09:17;;;;;;;5.07;4.00;;;3.60;95.10;;;;;;6204871;23;20130;-78
2022/03/31 06:11:44;;;;;;;4.50;3.63;;;3.50;95.40;;;;;;6209130;23;20145;-77
2022/03/31 06:14:11;;;;;;;5.50;4.57;;;3.50;95.30;;;;;;6208025;23;20201;-80
2022/03/31 06:16:37;;;;;;;5.20;4.57;;;3.60;95.70;;;;;;6207750;23;20164;-80
2022/03/31 06:19:04;;;;;;;4.63;3.90;;;3.60;95.70;;;;;;6182767;23;20142;-80
2022/03/31 06:21:30;;;;;;;5.30;4.80;;;3.40;95.30;;;;;;6204727;23;20145;-83
2022/03/31 06:23:57;;;;;;;5.90;4.80;;;3.50;95.30;;;;;;6200175;23;20232;-78
2022/03/31 06:26:23;;;;;;;5.13;4.37;;;3.60;95.70;;;;;;6192996;23;20629;-79
2022/03/31 06:28:49;;;;;;;6.37;4.60;;;3.60;95.80;;;;;;6199661;23;20134;-82
2022/03/31 06:31:14;;;;;;;7.23;4.83;;;3.80;95.80;;;;;;6199802;23;20138;-82
2022/03/31 06:33:40;;;;;;;5.60;4.50;;;3.80;95.80;;;;;;6190430;23;20466;-77
2022/03/31 06:36:06;;;;;;;5.13;4.40;;;3.60;94.80;;;;;;6186498;23;20169;-77
2022/03/31 06:38:32;;;;;;;5.47;4.83;;;3.60;95.10;;;;;;6186025;23;20134;-76
2022/03/31 06:41:06;;;;;;;4.93;4.20;;;3.70;95.40;;;;;;6189518;23;20563;-76
2022/03/31 06:43:39;;;;;;;5.80;5.17;;;3.70;94.70;;;;;;6189523;23;20129;-87
2022/03/31 06:46:06;;;;;;;6.00;5.20;;;3.70;94.90;;;;;;6194541;23;20170;-85
2022/03/31 06:48:32;;;;;;;5.83;5.23;;;3.90;95.10;;;;;;6197649;23;20191;-87
2022/03/31 06:50:59;;;;;;;8.00;5.90;;;3.80;95.20;;;;;;6191914;23;20134;-77
2022/03/31 06:53:26;;;;;;;5.97;5.37;;;3.90;95.50;;;;;;6198704;23;20153;-77
2022/03/31 06:55:52;;;;;;;7.50;6.00;;;4.00;95.30;;;;;;6202896;23;20470;-78
2022/03/31 06:58:21;;;;;;;6.77;5.70;;;3.90;95.30;;;;;;6174219;23;20153;-75
2022/03/31 07:00:49;;;;;;;6.83;4.73;;;3.90;94.70;;;;;;6205132;23;20217;-77
2022/03/31 07:03:17;;;;;;;8.20;6.37;;;3.90;95.10;;;;;;6176151;23;20161;-76
2022/03/31 07:05:46;;;;;;;7.27;5.93;;;3.80;94.50;;;;;;6207162;23;20271;-78
2022/03/31 07:08:15;;;;;;;9.10;7.93;;;3.80;94.90;;;;;;6198107;23;20142;-79
2022/03/31 07:10:41;;;;;;;9.80;8.30;;;3.90;95.20;;;;;;6171060;23;20145;-79
2022/03/31 07:13:10;;;;;;;9.40;7.23;;;3.90;95.60;;;;;;6188953;23;20622;-86
2022/03/31 07:15:36;;;;;;;10.30;8.33;;;3.80;95.40;;;;;;6191220;23;20138;-77
2022/03/31 07:18:03;;;;;;;8.40;6.83;;;3.80;95.20;;;;;;6195671;23;20145;-76
2022/03/31 07:20:33;;;;;;;9.73;8.33;;;3.70;95.00;;;;;;6198890;23;20702;-84
2022/03/31 07:22:59;;;;;;;9.13;8.10;;;3.70;95.60;;;;;;6195262;23;20142;-77
2022/03/31 07:25:29;;;;;;;9.37;8.43;;;3.80;96.10;;;;;;6191299;23;20470;-77
2022/03/31 07:28:21;;;;;;;8.50;7.60;;;3.80;96.50;;;;;;6188454;23;20221;-85
2022/03/31 07:30:47;;;;;;;8.70;7.80;;;3.80;96.90;;;;;;6191184;23;20138;-77
2022/03/31 07:33:13;;;;;;;11.13;7.13;;;3.90;96.90;;;;;;6192133;23;20168;-86
2022/03/31 07:35:42;;;;;;;6.77;6.07;;;3.90;96.60;;;;;;6189593;23;20150;-82
2022/03/31 07:38:08;;;;;;;6.10;5.07;;;3.90;96.20;;;;;;6204547;23;20149;-81
2022/03/31 07:40:37;;;;;;;7.07;5.60;;;3.80;96.00;;;;;;6173053;23;20138;-79
2022/03/31 07:43:06;;;;;;;6.27;4.90;;;3.80;96.10;;;;;;6167778;23;20150;-81
2022/03/31 07:45:34;;;;;;;6.37;5.67;;;3.90;95.40;;;;;;6190688;23;20134;-85
2022/03/31 07:48:03;;;;;;;6.40;5.17;;;3.90;95.40;;;;;;6189861;23;20141;-90
2022/03/31 07:50:30;;;;;;;7.23;6.53;;;4.00;95.50;;;;;;6194723;23;20138;-76
2022/03/31 07:52:56;;;;;;;7.67;6.80;;;4.00;94.80;;;;;;6199828;23;20141;-77
2022/03/31 07:55:23;;;;;;;6.50;5.53;;;4.00;94.90;;;;;;6204290;23;20205;-82
2022/03/31 07:57:50;;;;;;;5.97;5.03;;;4.00;94.30;;;;;;6177925;23;20177;-78
2022/03/31 08:00:20;;;;;;;7.17;6.33;;;4.10;94.00;;;;;;6193673;23;20134;-86
2022/03/31 08:02:50;;;;;;;8.67;7.70;;;4.10;93.60;;;;;;6189813;23;20142;-84
2022/03/31 08:05:20;;;;;;;8.73;6.73;;;4.10;93.80;;;;;;6189586;23;20192;-79
2022/03/31 08:07:46;;;;;;;7.73;6.80;;;4.20;93.50;;;;;;6188760;23;20174;-81
2022/03/31 08:10:12;;;;;;;6.93;5.93;;;4.30;93.30;;;;;;6188403;23;20134;-87
2022/03/31 08:12:39;;;;;;;6.83;5.77;;;4.30;91.20;;;;;;6188347;23;20208;-88
2022/03/31 08:15:05;;;;;;;9.30;6.83;;;4.30;88.20;;;;;;6189191;23;20130;-89
2022/03/31 08:17:31;;;;;;;9.10;7.63;;;4.20;89.50;;;;;;6191874;23;20135;-88
2022/03/31 08:19:57;;;;;;;7.37;6.27;;;4.30;89.60;;;;;;6190083;23;20150;-78
2022/03/31 08:22:23;;;;;;;8.17;7.00;;;4.30;84.60;;;;;;6189809;23;20189;-88
2022/03/31 08:24:50;;;;;;;8.87;7.97;;;4.20;79.30;;;;;;6191856;23;20157;-84
2022/03/31 08:27:16;;;;;;;9.53;7.67;;;4.30;81.80;;;;;;6165157;23;20186;-83
2022/03/31 08:29:42;;;;;;;7.63;6.53;;;4.40;81.50;;;;;;6204188;23;20146;-81
2022/03/31 08:32:09;;;;;;;7.73;6.10;;;4.30;77.40;;;;;;6206301;23;20149;-86
2022/03/31 08:34:35;;;;;;;9.77;6.57;;;4.50;77.10;;;;;;6205029;23;20150;-79
2022/03/31 08:37:03;;;;;;;6.80;5.97;;;4.50;76.60;;;;;;6205466;23;20226;-82
2022/03/31 08:39:28;;;;;;;8.43;5.00;;;4.50;69.40;;;;;;6180044;23;20160;-78
2022/03/31 08:41:54;;;;;;;5.73;4.13;;;4.50;53.30;;;;;;6208356;23;20126;-77
2022/03/31 08:44:21;;;;;;;7.93;5.70;;;4.50;55.20;;;;;;6182609;23;20142;-81
2022/03/31 08:46:49;;;;;;;7.13;5.47;;;4.60;53.20;;;;;;6211183;23;20181;-78
2022/03/31 08:49:17;;;;;;;7.27;5.23;;;4.70;54.20;;;;;;6212256;23;20134;-78
2022/03/31 08:51:49;;;;;;;6.33;4.33;;;4.80;52.60;;;;;;6213095;22;20153;-77
2022/03/31 08:54:23;;;;;;;6.30;4.77;;;4.80;50.70;;;;;;6209062;22;20236;-79
2022/03/31 08:56:58;;;;;;;8.73;5.00;;;4.80;43.10;;;;;;6203783;23;20144;-77
2022/03/31 08:59:52;;;;;;;7.20;4.60;;;4.70;40.60;;;;;;6199867;23;20137;-78
2022/03/31 09:05:42;;;;;;;5.17;4.67;;;4.80;30.40;;;;;;6191616;23;20165;-86
2022/03/31 09:08:11;;;;;;;5.47;4.03;;;4.70;36.90;;;;;;6197009;23;20149;-82
2022/03/31 09:10:45;;;;;;;5.50;4.53;;;4.70;34.50;;;;;;6201648;23;20134;-85
2022/03/31 09:13:24;;;;;;;7.13;5.27;;;4.70;35.00;;;;;;6171032;23;20174;-81
2022/03/31 09:16:01;;;;;;;6.60;4.30;;;4.90;37.40;;;;;;6205248;23;20181;-82
2022/03/31 09:18:32;;;;;;;5.20;4.00;;;5.00;34.60;;;;;;6209252;23;20134;-76
2022/03/31 09:21:03;;;;;;;6.33;4.03;;;4.90;31.20;;;;;;6196401;23;20165;-85
2022/03/31 09:23:32;;;;;;;5.53;3.70;;;5.00;27.90;;;;;;6193159;23;20133;-89
2022/03/31 09:26:08;;;;;;;6.30;4.27;;;5.00;21.20;;;;;;6166480;23;20512;-88
2022/03/31 09:28:34;;;;;;;5.70;3.83;;;4.90;20.30;;;;;;6194770;23;20138;-88
2022/03/31 09:31:00;;;;;;;8.10;4.93;;;5.00;21.10;;;;;;6193307;23;20130;-86
2022/03/31 09:33:34;;;;;;;5.33;3.80;;;5.00;24.30;;;;;;6165578;23;20174;-83
2022/03/31 09:36:11;;;;;;;10.27;5.40;;;5.00;20.60;;;;;;6166411;23;20160;-86
2022/03/31 09:38:39;;;;;;;6.00;4.10;;;5.10;22.50;;;;;;6191705;23;20177;-84
2022/03/31 09:41:25;;;;;;;6.80;4.30;;;5.20;15.60;;;;;;6141615;23;20176;-88
2022/03/31 09:43:53;;;;;;;5.50;4.00;;;5.10;15.90;;;;;;6165674;23;20150;-83
2022/03/31 09:46:37;;;;;;;6.57;4.13;;;5.10;14.70;;;;;;6190752;23;20268;-83
2022/03/31 09:49:18;;;;;;;6.23;4.37;;;5.20;18.00;;;;;;6165566;23;20133;-87
2022/03/31 09:51:48;;;;;;;7.43;4.23;;;5.30;19.00;;;;;;6194213;23;20145;-88
2022/03/31 09:54:18;;;;;;;5.67;3.93;;;5.30;7.20;;;;;;6191739;23;20130;-91
2022/03/31 09:56:45;;;;;;;9.30;5.20;;;5.30;7.10;;;;;;6193828;23;20145;-83
2022/03/31 09:59:12;;;;;;;7.83;4.50;;;5.40;8.70;;;;;;6207076;23;20134;-80
2022/03/31 10:01:39;;;;;;;5.77;4.40;;;5.50;12.10;;;;;;6204365;23;20138;-85
2022/03/31 10:04:07;;;;;;;4.37;3.10;;;5.50;1.00;;;;;;6199605;23;20149;-84
2022/03/31 10:06:41;;;;;;;5.60;4.10;;;5.50;1.00;;;;;;6194701;23;20184;-84
2022/03/31 10:09:12;;;;;;;5.03;3.37;;;5.40;1.00;;;;;;6195964;23;20134;-92
2022/03/31 10:11:50;;;;;;;4.73;3.80;;;5.50;1.00;;;;;;6200633;23;20138;-75
2022/03/31 10:15:00;;;;;;;3.80;3.37;;;5.50;1.00;;;;;;6201204;23;20162;-75
2022/03/31 10:17:32;;;;;;;4.97;4.00;;;5.50;1.00;;;;;;6199399;23;20563;-78
2022/03/31 10:20:14;;;;;;;5.70;3.90;;;5.60;1.00;;;;;;6168400;23;20152;-78
2022/03/31 10:25:37;;;;;;;4.00;3.57;;;5.80;1.00;;;;;;6191587;23;20230;-80
2022/03/31 10:28:21;;;;;;;6.13;4.17;;;6.00;1.00;;;;;;6197651;23;20601;-80
2022/03/31 10:31:07;;;;;;;6.37;4.57;;;6.10;1.00;;;;;;6194758;23;20150;-78
2022/03/31 10:33:42;;;;;;;6.00;4.33;;;6.00;1.00;;;;;;6196744;23;20176;-76
2022/03/31 10:36:16;;;;;;;6.73;4.50;;;6.00;1.00;;;;;;6201334;23;20142;-78
2022/03/31 10:38:56;;;;;;;6.83;4.80;;;6.10;1.00;;;;;;6199334;23;20130;-80
2022/03/31 10:41:39;;;;;;;6.80;4.83;;;6.20;1.00;;;;;;6197133;23;20176;-75
2022/03/31 10:44:14;;;;;;;5.27;4.13;;;6.20;1.00;;;;;;6200347;23;20165;-76
2022/03/31 10:46:44;;;;;;;7.20;3.90;;;6.20;1.00;;;;;;6200671;23;20184;-76
2022/03/31 10:49:13;;;;;;;4.53;4.13;;;6.30;1.00;;;;;;6199582;23;20145;-78
2022/03/31 10:51:45;;;;;;;5.80;4.00;;;6.40;1.00;;;;;;6150307;23;20220;-82
2022/03/31 10:54:30;;;;;;;4.63;3.93;;;6.40;1.00;;;;;;6194807;23;20153;-78
2022/03/31 10:57:07;;;;;;;6.67;4.53;;;6.50;1.00;;;;;;6196668;23;20146;-85
2022/03/31 10:59:41;;;;;;;6.00;3.67;;;6.50;1.00;;;;;;6193932;23;20213;-87
2022/03/31 11:02:18;;;;;;;4.80;3.60;;;6.50;1.00;;;;;;6192786;23;20137;-89
2022/03/31 11:04:47;;;;;;;9.13;6.30;;;6.40;1.00;;;;;;6199581;23;20227;-76
2022/03/31 11:07:18;;;;;;;6.30;5.60;;;6.50;1.00;;;;;;6155886;23;20201;-84
2022/03/31 11:09:45;;;;;;;8.93;7.70;;;6.40;1.00;;;;;;6205385;23;20130;-84
2022/03/31 11:12:26;;;;;;;8.47;6.50;;;6.40;1.00;;;;;;6177921;23;20164;-83
2022/03/31 11:15:00;;;;;;;7.63;5.93;;;6.50;1.00;;;;;;6200709;23;20141;-81
2022/03/31 11:17:36;;;;;;;7.10;6.40;;;6.50;1.00;;;;;;6193140;23;20140;-82
2022/03/31 11:20:24;;;;;;;6.27;5.67;;;6.50;1.00;;;;;;6194376;23;20134;-84
2022/03/31 11:22:59;;;;;;;9.73;5.87;;;6.60;1.00;;;;;;6197079;23;20134;-89
2022/03/31 11:25:27;;;;;;;9.60;6.10;;;6.70;1.00;;;;;;6178355;23;20148;-81
2022/03/31 11:27:53;;;;;;;5.73;5.23;;;6.80;1.00;;;;;;6206719;23;20174;-81
2022/03/31 11:30:24;;;;;;;6.57;4.20;;;6.90;1.00;;;;;;6203307;23;20166;-78
2022/03/31 11:33:03;;;;;;;8.00;4.00;;;6.90;1.00;;;;;;6210151;23;20152;-78
2022/03/31 11:35:30;;;;;;;5.60;3.67;;;7.00;1.00;;;;;;6210692;23;20186;-77
2022/03/31 11:38:01;;;;;;;5.83;3.77;;;6.90;1.00;;;;;;6210525;23;20141;-78
2022/03/31 11:40:37;;;;;;;5.80;4.23;;;7.00;1.00;;;;;;6210063;22;20130;-78
2022/03/31 11:43:08;;;;;;;5.00;3.30;;;7.20;1.00;;;;;;6184137;23;20148;-81
2022/03/31 11:45:42;;;;;;;4.77;3.70;;;7.20;1.00;;;;;;6181069;23;20138;-80
2022/03/31 11:48:13;;;;;;;5.67;4.40;;;7.20;1.00;;;;;;6207561;23;20185;-76
2022/03/31 11:50:49;;;;;;;5.87;4.83;;;7.20;1.00;;;;;;6203238;23;20145;-86
2022/03/31 11:53:33;;;;;;;9.20;5.53;;;7.20;1.00;;;;;;6200772;23;20133;-84
2022/03/31 11:56:10;;;;;;;5.40;4.70;;;7.30;1.00;;;;;;6198185;23;20197;-83
2022/03/31 11:58:49;;;;;;;7.90;5.43;;;7.20;1.00;;;;;;6193599;23;20575;-82
2022/03/31 12:01:20;;;;;;;7.43;6.13;;;7.30;1.00;;;;;;6195658;23;20188;-88
2022/03/31 12:03:48;;;;;;;5.87;5.27;;;7.40;1.00;;;;;;6165222;23;20611;-83
2022/03/31 12:06:17;;;;;;;5.90;5.40;;;7.60;1.00;;;;;;6192424;23;20617;-82
2022/03/31 12:08:44;;;;;;;6.13;5.57;;;7.50;99.90;;;;;;6190926;23;20185;-85
2022/03/31 12:11:13;;;;;;;6.53;5.90;;;7.40;99.90;;;;;;6142017;23;20204;-88
2022/03/31 12:13:53;;;;;;;5.77;5.17;;;7.30;1.00;;;;;;6195045;23;20669;-87
2022/03/31 12:16:20;;;;;;;6.33;5.30;;;7.20;1.00;;;;;;6208574;23;20197;-85
2022/03/31 12:18:56;;;;;;;5.60;4.97;;;7.30;1.00;;;;;;6204795;23;20144;-80
2022/03/31 12:21:26;;;;;;;6.57;4.30;;;7.40;1.00;;;;;;6171626;23;20160;-83
2022/03/31 12:23:57;;;;;;;6.30;3.87;;;7.60;1.00;;;;;;6201517;23;20146;-79
2022/03/31 12:26:24;;;;;;;5.43;3.57;;;7.70;99.90;;;;;;6169594;23;20698;-83
2022/03/31 12:28:50;;;;;;;4.73;3.90;;;7.60;99.90;;;;;;6168317;23;20150;-86
2022/03/31 12:31:29;;;;;;;6.50;3.40;;;7.50;99.90;;;;;;6177978;23;20204;-82
2022/03/31 12:33:56;;;;;;;5.13;3.63;;;7.70;99.90;;;;;;6178220;23;20217;-83
2022/03/31 12:36:28;;;;;;;6.47;3.80;;;7.80;99.90;;;;;;6203958;23;20138;-83
2022/03/31 12:39:03;;;;;;;4.63;3.77;;;8.00;99.90;;;;;;6183858;23;20145;-80
2022/03/31 12:41:34;;;;;;;7.57;4.50;;;8.20;99.90;;;;;;6209319;23;20140;-80
2022/03/31 12:44:17;;;;;;;5.27;4.00;;;8.20;99.90;;;;;;6211040;23;20138;-82
2022/03/31 12:46:55;;;;;;;5.73;4.20;;;8.10;99.90;;;;;;6179702;23;20213;-77
2022/03/31 12:49:25;;;;;;;5.80;4.10;;;8.10;99.90;;;;;;6201832;23;20134;-77
2022/03/31 12:51:59;;;;;;;4.77;3.80;;;7.90;99.90;;;;;;6194382;23;20138;-84
2022/03/31 12:54:38;;;;;;;4.67;4.17;;;8.10;99.90;;;;;;6166508;23;20138;-85
2022/03/31 12:57:20;;;;;;;5.43;4.00;;;8.00;99.90;;;;;;6192495;23;20614;-86
2022/03/31 13:00:09;;;;;;;5.47;4.60;;;8.10;99.90;;;;;;6164586;23;20141;-88
2022/03/31 13:02:37;;;;;;;6.47;3.80;;;8.10;99.90;;;;;;6174877;23;20551;-88
2022/03/31 13:05:04;;;;;;;7.70;3.93;;;8.10;99.90;;;;;;6192596;23;20594;-85
2022/03/31 13:07:30;;;;;;;5.73;3.70;;;8.10;99.90;;;;;;6190480;23;20252;-84
2022/03/31 13:10:00;;;;;;;7.13;4.00;;;8.10;99.90;;;;;;6167003;23;20157;-87
2022/03/31 13:12:29;;;;;;;6.23;3.37;;;8.20;99.90;;;;;;6190654;23;20172;-86
2022/03/31 13:14:55;;;;;;;4.57;2.93;;;8.20;99.90;;;;;;6189828;23;20138;-87
2022/03/31 13:17:28;;;;;;;3.97;3.10;;;8.20;99.90;;;;;;6164778;23;20178;-85
2022/03/31 13:19:53;;;;;;;4.00;2.97;;;8.30;99.90;;;;;;6208194;23;20132;-78
2022/03/31 13:22:23;;;;;;;3.67;3.03;;;8.10;99.90;;;;;;6203027;23;20138;-79